sensor_id;sensor_type;location;lat;lon;timestamp;P1;durP1;ratioP1;P2;durP2;ratioP2
10605;SDS011;5350;42.698;23.148;2023-04-16T00:01:54;2.60;;;1.50;;
10605;SDS011;5350;42.698;23.148;2023-04-16T00:04:21;3.90;;;1.97;;
10605;SDS011;5350;42.698;23.148;2023-04-16T00:06:47;2.87;;;2.13;;
10605;SDS011;5350;42.698;23.148;2023-04-16T00:09:15;3.67;;;1.77;;
10605;SDS011;5350;42.698;23.148;2023-04-16T00:11:42;2.47;;;1.40;;
10605;SDS011;5350;42.698;23.148;2023-04-16T00:14:09;3.07;;;1.30;;
10605;SDS011;5350;42.698;23.148;2023-04-16T00:16:36;3.83;;;1.90;;
10605;SDS011;5350;42.698;23.148;2023-04-16T00:19:03;5.43;;;3.80;;
10605;SDS011;5350;42.698;23.148;2023-04-16T00:21:29;10.23;;;9.10;;
10605;SDS011;5350;42.698;23.148;2023-04-16T00:23:56;12.53;;;10.50;;
10605;SDS011;5350;42.698;23.148;2023-04-16T00:26:24;5.03;;;3.53;;
10605;SDS011;5350;42.698;23.148;2023-04-16T00:28:51;4.57;;;3.50;;
10605;SDS011;5350;42.698;23.148;2023-04-16T00:31:17;5.27;;;3.80;;
10605;SDS011;5350;42.698;23.148;2023-04-16T00:33:52;4.77;;;4.30;;
10605;SDS011;5350;42.698;23.148;2023-04-16T00:36:18;4.83;;;3.20;;
10605;SDS011;5350;42.698;23.148;2023-04-16T00:38:45;7.27;;;4.00;;
10605;SDS011;5350;42.698;23.148;2023-04-16T00:41:12;4.80;;;4.17;;
10605;SDS011;5350;42.698;23.148;2023-04-16T00:43:40;5.70;;;3.07;;
10605;SDS011;5350;42.698;23.148;2023-04-16T00:46:07;4.90;;;2.90;;
10605;SDS011;5350;42.698;23.148;2023-04-16T00:48:34;3.70;;;2.43;;
10605;SDS011;5350;42.698;23.148;2023-04-16T00:51:03;5.80;;;2.70;;
10605;SDS011;5350;42.698;23.148;2023-04-16T00:53:31;4.33;;;2.57;;
10605;SDS011;5350;42.698;23.148;2023-04-16T00:55:58;4.63;;;2.67;;
10605;SDS011;5350;42.698;23.148;2023-04-16T00:58:25;10.50;;;5.93;;
10605;SDS011;5350;42.698;23.148;2023-04-16T01:00:55;6.67;;;5.40;;
10605;SDS011;5350;42.698;23.148;2023-04-16T01:03:21;6.00;;;4.00;;
10605;SDS011;5350;42.698;23.148;2023-04-16T01:05:48;5.87;;;2.37;;
10605;SDS011;5350;42.698;23.148;2023-04-16T01:08:16;3.90;;;2.80;;
10605;SDS011;5350;42.698;23.148;2023-04-16T01:10:44;3.50;;;2.70;;
10605;SDS011;5350;42.698;23.148;2023-04-16T01:13:10;5.37;;;2.93;;
10605;SDS011;5350;42.698;23.148;2023-04-16T01:15:37;4.10;;;2.30;;
10605;SDS011;5350;42.698;23.148;2023-04-16T01:18:13;4.40;;;1.93;;
10605;SDS011;5350;42.698;23.148;2023-04-16T01:20:41;4.53;;;2.37;;
10605;SDS011;5350;42.698;23.148;2023-04-16T01:23:08;4.33;;;2.23;;
10605;SDS011;5350;42.698;23.148;2023-04-16T01:25:35;3.57;;;1.80;;
10605;SDS011;5350;42.698;23.148;2023-04-16T01:28:02;4.90;;;2.50;;
10605;SDS011;5350;42.698;23.148;2023-04-16T01:30:29;3.93;;;2.10;;
10605;SDS011;5350;42.698;23.148;2023-04-16T01:32:55;2.77;;;1.70;;
10605;SDS011;5350;42.698;23.148;2023-04-16T01:35:22;2.83;;;1.30;;
10605;SDS011;5350;42.698;23.148;2023-04-16T01:37:51;3.30;;;1.30;;
10605;SDS011;5350;42.698;23.148;2023-04-16T01:40:18;2.33;;;1.20;;
10605;SDS011;5350;42.698;23.148;2023-04-16T01:42:45;3.60;;;1.33;;
10605;SDS011;5350;42.698;23.148;2023-04-16T01:45:12;3.13;;;1.30;;
10605;SDS011;5350;42.698;23.148;2023-04-16T01:47:38;2.87;;;1.13;;
10605;SDS011;5350;42.698;23.148;2023-04-16T01:50:06;3.30;;;1.20;;
10605;SDS011;5350;42.698;23.148;2023-04-16T01:52:34;4.33;;;1.40;;
10605;SDS011;5350;42.698;23.148;2023-04-16T01:55:02;2.73;;;1.00;;
10605;SDS011;5350;42.698;23.148;2023-04-16T01:57:29;2.30;;;1.37;;
10605;SDS011;5350;42.698;23.148;2023-04-16T01:59:56;1.60;;;1.27;;
10605;SDS011;5350;42.698;23.148;2023-04-16T02:02:23;2.53;;;1.63;;
10605;SDS011;5350;42.698;23.148;2023-04-16T02:04:52;2.83;;;1.87;;
10605;SDS011;5350;42.698;23.148;2023-04-16T02:07:18;2.03;;;1.47;;
10605;SDS011;5350;42.698;23.148;2023-04-16T02:09:45;1.40;;;1.30;;
10605;SDS011;5350;42.698;23.148;2023-04-16T02:12:15;3.03;;;1.67;;
10605;SDS011;5350;42.698;23.148;2023-04-16T02:14:42;3.77;;;2.30;;
10605;SDS011;5350;42.698;23.148;2023-04-16T02:17:09;2.80;;;1.50;;
10605;SDS011;5350;42.698;23.148;2023-04-16T02:19:36;1.70;;;1.30;;
10605;SDS011;5350;42.698;23.148;2023-04-16T02:22:03;3.00;;;1.60;;
10605;SDS011;5350;42.698;23.148;2023-04-16T02:24:30;3.00;;;1.40;;
10605;SDS011;5350;42.698;23.148;2023-04-16T02:26:56;2.00;;;1.30;;
10605;SDS011;5350;42.698;23.148;2023-04-16T02:29:24;2.77;;;1.50;;
10605;SDS011;5350;42.698;23.148;2023-04-16T02:31:51;4.33;;;1.50;;
10605;SDS011;5350;42.698;23.148;2023-04-16T02:34:18;3.03;;;1.33;;
10605;SDS011;5350;42.698;23.148;2023-04-16T02:36:44;1.33;;;1.13;;
10605;SDS011;5350;42.698;23.148;2023-04-16T02:39:11;4.63;;;1.07;;
10605;SDS011;5350;42.698;23.148;2023-04-16T02:41:38;2.10;;;1.00;;
10605;SDS011;5350;42.698;23.148;2023-04-16T02:44:05;3.50;;;1.40;;
10605;SDS011;5350;42.698;23.148;2023-04-16T02:46:33;4.57;;;2.00;;
10605;SDS011;5350;42.698;23.148;2023-04-16T02:48:59;4.33;;;2.00;;
10605;SDS011;5350;42.698;23.148;2023-04-16T02:51:27;3.33;;;1.70;;
10605;SDS011;5350;42.698;23.148;2023-04-16T02:53:53;3.47;;;1.60;;
10605;SDS011;5350;42.698;23.148;2023-04-16T02:56:20;3.73;;;2.53;;
10605;SDS011;5350;42.698;23.148;2023-04-16T02:58:47;2.60;;;1.60;;
10605;SDS011;5350;42.698;23.148;2023-04-16T03:01:13;2.83;;;1.60;;
10605;SDS011;5350;42.698;23.148;2023-04-16T03:03:41;3.17;;;1.70;;
10605;SDS011;5350;42.698;23.148;2023-04-16T03:06:08;2.87;;;1.37;;
10605;SDS011;5350;42.698;23.148;2023-04-16T03:08:35;4.93;;;1.63;;
10605;SDS011;5350;42.698;23.148;2023-04-16T03:11:02;2.73;;;1.47;;
10605;SDS011;5350;42.698;23.148;2023-04-16T03:13:29;4.93;;;2.20;;
10605;SDS011;5350;42.698;23.148;2023-04-16T03:15:56;6.10;;;2.50;;
10605;SDS011;5350;42.698;23.148;2023-04-16T03:18:22;4.57;;;2.33;;
10605;SDS011;5350;42.698;23.148;2023-04-16T03:20:51;3.50;;;1.90;;
10605;SDS011;5350;42.698;23.148;2023-04-16T03:23:18;2.30;;;1.73;;
10605;SDS011;5350;42.698;23.148;2023-04-16T03:25:45;4.87;;;2.50;;
10605;SDS011;5350;42.698;23.148;2023-04-16T03:28:12;2.50;;;1.83;;
10605;SDS011;5350;42.698;23.148;2023-04-16T03:30:39;3.03;;;1.70;;
10605;SDS011;5350;42.698;23.148;2023-04-16T03:33:05;3.20;;;1.50;;
10605;SDS011;5350;42.698;23.148;2023-04-16T03:35:32;1.80;;;1.10;;
10605;SDS011;5350;42.698;23.148;2023-04-16T03:38:00;3.37;;;1.60;;
10605;SDS011;5350;42.698;23.148;2023-04-16T03:40:27;3.43;;;2.23;;
10605;SDS011;5350;42.698;23.148;2023-04-16T03:42:54;3.40;;;2.00;;
10605;SDS011;5350;42.698;23.148;2023-04-16T03:45:20;3.20;;;1.90;;
10605;SDS011;5350;42.698;23.148;2023-04-16T03:47:47;1.77;;;1.50;;
10605;SDS011;5350;42.698;23.148;2023-04-16T03:50:16;5.50;;;2.40;;
10605;SDS011;5350;42.698;23.148;2023-04-16T03:52:43;2.73;;;2.00;;
10605;SDS011;5350;42.698;23.148;2023-04-16T03:55:12;3.40;;;2.13;;
10605;SDS011;5350;42.698;23.148;2023-04-16T03:57:39;4.60;;;1.80;;
10605;SDS011;5350;42.698;23.148;2023-04-16T04:00:06;3.60;;;2.17;;
10605;SDS011;5350;42.698;23.148;2023-04-16T04:02:34;2.20;;;1.87;;
10605;SDS011;5350;42.698;23.148;2023-04-16T04:05:00;2.87;;;2.00;;
10605;SDS011;5350;42.698;23.148;2023-04-16T04:07:27;2.10;;;1.90;;
10605;SDS011;5350;42.698;23.148;2023-04-16T04:09:54;5.27;;;1.53;;
10605;SDS011;5350;42.698;23.148;2023-04-16T04:12:22;4.00;;;1.80;;
10605;SDS011;5350;42.698;23.148;2023-04-16T04:14:49;3.37;;;2.70;;
10605;SDS011;5350;42.698;23.148;2023-04-16T04:17:16;3.00;;;1.40;;
10605;SDS011;5350;42.698;23.148;2023-04-16T04:19:43;3.13;;;1.60;;
10605;SDS011;5350;42.698;23.148;2023-04-16T04:22:09;2.20;;;1.30;;
10605;SDS011;5350;42.698;23.148;2023-04-16T04:24:36;2.93;;;1.40;;
10605;SDS011;5350;42.698;23.148;2023-04-16T04:27:03;3.70;;;1.90;;
10605;SDS011;5350;42.698;23.148;2023-04-16T04:29:31;5.00;;;2.20;;
10605;SDS011;5350;42.698;23.148;2023-04-16T04:31:58;6.77;;;3.37;;
10605;SDS011;5350;42.698;23.148;2023-04-16T04:34:25;5.60;;;3.70;;
10605;SDS011;5350;42.698;23.148;2023-04-16T04:36:51;9.50;;;4.53;;
10605;SDS011;5350;42.698;23.148;2023-04-16T04:39:18;3.63;;;2.47;;
10605;SDS011;5350;42.698;23.148;2023-04-16T04:41:46;3.97;;;2.10;;
10605;SDS011;5350;42.698;23.148;2023-04-16T04:44:12;5.10;;;3.53;;
10605;SDS011;5350;42.698;23.148;2023-04-16T04:46:41;20.93;;;14.07;;
10605;SDS011;5350;42.698;23.148;2023-04-16T04:49:08;28.53;;;19.47;;
10605;SDS011;5350;42.698;23.148;2023-04-16T04:51:34;4.60;;;3.10;;
10605;SDS011;5350;42.698;23.148;2023-04-16T04:54:01;3.10;;;2.47;;
10605;SDS011;5350;42.698;23.148;2023-04-16T04:56:28;4.40;;;1.97;;
10605;SDS011;5350;42.698;23.148;2023-04-16T04:58:55;3.70;;;1.30;;
10605;SDS011;5350;42.698;23.148;2023-04-16T05:01:21;2.70;;;1.33;;
10605;SDS011;5350;42.698;23.148;2023-04-16T05:03:49;7.63;;;4.57;;
10605;SDS011;5350;42.698;23.148;2023-04-16T05:06:16;4.30;;;2.10;;
10605;SDS011;5350;42.698;23.148;2023-04-16T05:08:43;3.37;;;1.30;;
10605;SDS011;5350;42.698;23.148;2023-04-16T05:11:10;1.80;;;1.20;;
10605;SDS011;5350;42.698;23.148;2023-04-16T05:13:36;2.47;;;1.87;;
10605;SDS011;5350;42.698;23.148;2023-04-16T05:16:03;4.33;;;2.33;;
10605;SDS011;5350;42.698;23.148;2023-04-16T05:18:30;53.23;;;37.50;;
10605;SDS011;5350;42.698;23.148;2023-04-16T05:20:59;39.57;;;27.13;;
10605;SDS011;5350;42.698;23.148;2023-04-16T05:23:25;4.23;;;2.33;;
10605;SDS011;5350;42.698;23.148;2023-04-16T05:25:53;3.77;;;2.17;;
10605;SDS011;5350;42.698;23.148;2023-04-16T05:28:20;4.70;;;3.13;;
10605;SDS011;5350;42.698;23.148;2023-04-16T05:30:46;3.70;;;2.20;;
10605;SDS011;5350;42.698;23.148;2023-04-16T05:33:13;3.90;;;2.20;;
10605;SDS011;5350;42.698;23.148;2023-04-16T05:35:40;4.67;;;2.13;;
10605;SDS011;5350;42.698;23.148;2023-04-16T05:38:08;3.93;;;2.13;;
10605;SDS011;5350;42.698;23.148;2023-04-16T05:40:35;4.43;;;2.30;;
10605;SDS011;5350;42.698;23.148;2023-04-16T05:43:02;4.20;;;2.80;;
10605;SDS011;5350;42.698;23.148;2023-04-16T05:45:28;3.87;;;2.00;;
10605;SDS011;5350;42.698;23.148;2023-04-16T05:47:57;3.93;;;2.40;;
10605;SDS011;5350;42.698;23.148;2023-04-16T05:50:24;141.07;;;41.20;;
10605;SDS011;5350;42.698;23.148;2023-04-16T05:52:51;86.07;;;29.40;;
10605;SDS011;5350;42.698;23.148;2023-04-16T05:55:19;182.27;;;55.80;;
10605;SDS011;5350;42.698;23.148;2023-04-16T05:57:46;72.80;;;23.87;;
10605;SDS011;5350;42.698;23.148;2023-04-16T06:00:12;10.17;;;3.63;;
10605;SDS011;5350;42.698;23.148;2023-04-16T06:02:39;6.50;;;2.37;;
10605;SDS011;5350;42.698;23.148;2023-04-16T06:05:07;5.33;;;2.70;;
10605;SDS011;5350;42.698;23.148;2023-04-16T06:07:33;12.27;;;4.27;;
10605;SDS011;5350;42.698;23.148;2023-04-16T06:10:00;13.80;;;5.00;;
10605;SDS011;5350;42.698;23.148;2023-04-16T06:12:28;12.87;;;5.70;;
10605;SDS011;5350;42.698;23.148;2023-04-16T06:14:55;8.50;;;4.60;;
10605;SDS011;5350;42.698;23.148;2023-04-16T06:17:22;5.70;;;3.97;;
10605;SDS011;5350;42.698;23.148;2023-04-16T06:19:49;9.13;;;5.00;;
10605;SDS011;5350;42.698;23.148;2023-04-16T06:22:16;7.40;;;4.47;;
10605;SDS011;5350;42.698;23.148;2023-04-16T06:24:42;6.90;;;4.17;;
10605;SDS011;5350;42.698;23.148;2023-04-16T06:27:09;7.80;;;4.53;;
10605;SDS011;5350;42.698;23.148;2023-04-16T06:29:37;8.23;;;3.87;;
10605;SDS011;5350;42.698;23.148;2023-04-16T06:32:04;5.33;;;3.50;;
10605;SDS011;5350;42.698;23.148;2023-04-16T06:34:31;4.80;;;3.10;;
10605;SDS011;5350;42.698;23.148;2023-04-16T06:36:58;6.17;;;3.33;;
10605;SDS011;5350;42.698;23.148;2023-04-16T06:39:25;4.63;;;3.10;;
10605;SDS011;5350;42.698;23.148;2023-04-16T06:41:52;6.00;;;3.10;;
10605;SDS011;5350;42.698;23.148;2023-04-16T06:44:18;5.90;;;2.83;;
10605;SDS011;5350;42.698;23.148;2023-04-16T06:46:47;5.57;;;3.13;;
10605;SDS011;5350;42.698;23.148;2023-04-16T06:49:13;5.43;;;3.80;;
10605;SDS011;5350;42.698;23.148;2023-04-16T06:51:40;5.90;;;3.50;;
10605;SDS011;5350;42.698;23.148;2023-04-16T06:54:07;5.97;;;3.00;;
10605;SDS011;5350;42.698;23.148;2023-04-16T06:56:34;5.10;;;3.07;;
10605;SDS011;5350;42.698;23.148;2023-04-16T06:59:01;4.60;;;2.80;;
10605;SDS011;5350;42.698;23.148;2023-04-16T07:01:28;4.33;;;2.67;;
10605;SDS011;5350;42.698;23.148;2023-04-16T07:03:56;10.20;;;3.80;;
10605;SDS011;5350;42.698;23.148;2023-04-16T07:06:23;4.80;;;2.93;;
10605;SDS011;5350;42.698;23.148;2023-04-16T07:08:51;5.23;;;3.17;;
10605;SDS011;5350;42.698;23.148;2023-04-16T07:11:18;6.10;;;2.73;;
10605;SDS011;5350;42.698;23.148;2023-04-16T07:13:45;4.33;;;2.50;;
10605;SDS011;5350;42.698;23.148;2023-04-16T07:16:11;4.97;;;2.53;;
10605;SDS011;5350;42.698;23.148;2023-04-16T07:18:38;6.57;;;2.67;;
10605;SDS011;5350;42.698;23.148;2023-04-16T07:21:07;4.60;;;2.30;;
10605;SDS011;5350;42.698;23.148;2023-04-16T07:23:34;2.53;;;1.65;;
10605;SDS011;5350;42.698;23.148;2023-04-16T07:26:01;4.43;;;1.93;;
10605;SDS011;5350;42.698;23.148;2023-04-16T07:28:27;3.17;;;1.90;;
10605;SDS011;5350;42.698;23.148;2023-04-16T07:30:54;2.55;;;1.50;;
10605;SDS011;5350;42.698;23.148;2023-04-16T07:33:21;5.57;;;2.08;;
10605;SDS011;5350;42.698;23.148;2023-04-16T07:35:48;2.57;;;1.57;;
10605;SDS011;5350;42.698;23.148;2023-04-16T07:38:16;3.80;;;1.90;;
10605;SDS011;5350;42.698;23.148;2023-04-16T07:40:43;4.97;;;1.80;;
10605;SDS011;5350;42.698;23.148;2023-04-16T07:43:10;4.13;;;2.20;;
10605;SDS011;5350;42.698;23.148;2023-04-16T07:45:38;3.67;;;1.87;;
10605;SDS011;5350;42.698;23.148;2023-04-16T07:48:05;4.00;;;1.70;;
10605;SDS011;5350;42.698;23.148;2023-04-16T07:50:32;8.02;;;2.42;;
10605;SDS011;5350;42.698;23.148;2023-04-16T07:52:58;3.05;;;2.05;;
10605;SDS011;5350;42.698;23.148;2023-04-16T07:55:26;3.67;;;1.42;;
10605;SDS011;5350;42.698;23.148;2023-04-16T07:57:53;2.67;;;1.42;;
10605;SDS011;5350;42.698;23.148;2023-04-16T08:00:20;2.15;;;1.33;;
10605;SDS011;5350;42.698;23.148;2023-04-16T08:02:47;3.50;;;1.50;;
10605;SDS011;5350;42.698;23.148;2023-04-16T08:05:13;3.05;;;1.77;;
10605;SDS011;5350;42.698;23.148;2023-04-16T08:07:40;2.72;;;1.95;;
10605;SDS011;5350;42.698;23.148;2023-04-16T08:10:07;3.20;;;1.50;;
10605;SDS011;5350;42.698;23.148;2023-04-16T08:12:35;2.38;;;1.48;;
10605;SDS011;5350;42.698;23.148;2023-04-16T08:15:02;4.10;;;1.98;;
10605;SDS011;5350;42.698;23.148;2023-04-16T08:17:30;2.40;;;1.55;;
10605;SDS011;5350;42.698;23.148;2023-04-16T08:19:58;3.50;;;1.65;;
10605;SDS011;5350;42.698;23.148;2023-04-16T08:22:25;4.07;;;1.90;;
10605;SDS011;5350;42.698;23.148;2023-04-16T08:24:52;3.53;;;1.63;;
10605;SDS011;5350;42.698;23.148;2023-04-16T08:27:19;4.55;;;1.70;;
10605;SDS011;5350;42.698;23.148;2023-04-16T08:29:47;2.30;;;1.33;;
10605;SDS011;5350;42.698;23.148;2023-04-16T08:32:14;7.10;;;1.90;;
10605;SDS011;5350;42.698;23.148;2023-04-16T08:34:41;3.05;;;1.80;;
10605;SDS011;5350;42.698;23.148;2023-04-16T08:37:08;5.10;;;2.05;;
10605;SDS011;5350;42.698;23.148;2023-04-16T08:39:35;4.38;;;2.10;;
10605;SDS011;5350;42.698;23.148;2023-04-16T08:42:02;5.35;;;2.15;;
10605;SDS011;5350;42.698;23.148;2023-04-16T08:44:31;4.38;;;1.90;;
10605;SDS011;5350;42.698;23.148;2023-04-16T08:47:02;5.40;;;2.50;;
10605;SDS011;5350;42.698;23.148;2023-04-16T08:49:31;3.60;;;2.00;;
10605;SDS011;5350;42.698;23.148;2023-04-16T08:52:01;5.07;;;2.08;;
10605;SDS011;5350;42.698;23.148;2023-04-16T08:54:33;4.10;;;2.13;;
10605;SDS011;5350;42.698;23.148;2023-04-16T08:57:08;6.47;;;2.55;;
10605;SDS011;5350;42.698;23.148;2023-04-16T08:59:37;4.53;;;2.40;;
10605;SDS011;5350;42.698;23.148;2023-04-16T09:02:05;3.95;;;2.40;;
10605;SDS011;5350;42.698;23.148;2023-04-16T09:04:32;6.22;;;2.90;;
10605;SDS011;5350;42.698;23.148;2023-04-16T09:06:59;7.00;;;2.65;;
10605;SDS011;5350;42.698;23.148;2023-04-16T09:09:29;4.50;;;2.30;;
10605;SDS011;5350;42.698;23.148;2023-04-16T09:11:57;5.13;;;2.50;;
10605;SDS011;5350;42.698;23.148;2023-04-16T09:14:25;6.63;;;2.35;;
10605;SDS011;5350;42.698;23.148;2023-04-16T09:16:52;4.40;;;2.47;;
10605;SDS011;5350;42.698;23.148;2023-04-16T09:19:21;3.95;;;2.13;;
10605;SDS011;5350;42.698;23.148;2023-04-16T09:21:48;4.07;;;2.00;;
10605;SDS011;5350;42.698;23.148;2023-04-16T09:24:15;2.92;;;1.75;;
10605;SDS011;5350;42.698;23.148;2023-04-16T09:26:42;3.97;;;2.10;;
10605;SDS011;5350;42.698;23.148;2023-04-16T09:29:09;2.75;;;1.92;;
10605;SDS011;5350;42.698;23.148;2023-04-16T09:31:35;4.45;;;2.20;;
10605;SDS011;5350;42.698;23.148;2023-04-16T09:34:03;3.22;;;2.10;;
10605;SDS011;5350;42.698;23.148;2023-04-16T09:36:32;3.13;;;1.80;;
10605;SDS011;5350;42.698;23.148;2023-04-16T09:38:59;3.58;;;2.30;;
10605;SDS011;5350;42.698;23.148;2023-04-16T09:41:27;3.53;;;2.67;;
10605;SDS011;5350;42.698;23.148;2023-04-16T09:43:55;3.72;;;2.20;;
10605;SDS011;5350;42.698;23.148;2023-04-16T09:46:23;4.78;;;1.80;;
10605;SDS011;5350;42.698;23.148;2023-04-16T09:48:50;4.97;;;2.13;;
10605;SDS011;5350;42.698;23.148;2023-04-16T09:51:17;5.95;;;2.53;;
10605;SDS011;5350;42.698;23.148;2023-04-16T09:53:45;3.97;;;2.47;;
10605;SDS011;5350;42.698;23.148;2023-04-16T09:56:12;4.30;;;1.80;;
10605;SDS011;5350;42.698;23.148;2023-04-16T09:58:39;3.13;;;1.80;;
10605;SDS011;5350;42.698;23.148;2023-04-16T10:01:06;4.60;;;2.20;;
10605;SDS011;5350;42.698;23.148;2023-04-16T10:03:34;5.03;;;1.65;;
10605;SDS011;5350;42.698;23.148;2023-04-16T10:06:05;4.07;;;2.20;;
10605;SDS011;5350;42.698;23.148;2023-04-16T10:08:33;3.47;;;2.17;;
10605;SDS011;5350;42.698;23.148;2023-04-16T10:11:01;3.60;;;1.90;;
10605;SDS011;5350;42.698;23.148;2023-04-16T10:13:28;5.47;;;2.40;;
10605;SDS011;5350;42.698;23.148;2023-04-16T10:15:55;2.72;;;1.90;;
10605;SDS011;5350;42.698;23.148;2023-04-16T10:18:22;4.97;;;1.98;;
10605;SDS011;5350;42.698;23.148;2023-04-16T10:20:49;3.95;;;2.00;;
10605;SDS011;5350;42.698;23.148;2023-04-16T10:23:16;3.45;;;1.65;;
10605;SDS011;5350;42.698;23.148;2023-04-16T10:25:44;7.38;;;2.05;;
10605;SDS011;5350;42.698;23.148;2023-04-16T10:28:14;4.15;;;1.50;;
10605;SDS011;5350;42.698;23.148;2023-04-16T10:30:42;3.55;;;1.70;;
10605;SDS011;5350;42.698;23.148;2023-04-16T10:33:16;2.05;;;1.52;;
10605;SDS011;5350;42.698;23.148;2023-04-16T10:35:45;5.10;;;1.60;;
10605;SDS011;5350;42.698;23.148;2023-04-16T10:38:21;5.43;;;1.60;;
10605;SDS011;5350;42.698;23.148;2023-04-16T10:40:49;4.70;;;1.60;;
10605;SDS011;5350;42.698;23.148;2023-04-16T10:43:17;4.90;;;1.33;;
10605;SDS011;5350;42.698;23.148;2023-04-16T10:45:46;3.03;;;1.10;;
10605;SDS011;5350;42.698;23.148;2023-04-16T10:48:13;5.63;;;1.35;;
10605;SDS011;5350;42.698;23.148;2023-04-16T10:50:41;5.55;;;1.35;;
10605;SDS011;5350;42.698;23.148;2023-04-16T10:53:17;2.22;;;1.27;;
10605;SDS011;5350;42.698;23.148;2023-04-16T10:55:55;4.13;;;1.60;;
10605;SDS011;5350;42.698;23.148;2023-04-16T10:58:38;1.30;;;1.20;;
10605;SDS011;5350;42.698;23.148;2023-04-16T11:01:06;3.90;;;1.20;;
10605;SDS011;5350;42.698;23.148;2023-04-16T11:03:36;4.22;;;1.63;;
10605;SDS011;5350;42.698;23.148;2023-04-16T11:06:10;3.17;;;1.27;;
10605;SDS011;5350;42.698;23.148;2023-04-16T11:08:38;5.45;;;1.65;;
10605;SDS011;5350;42.698;23.148;2023-04-16T11:11:06;2.72;;;1.10;;
10605;SDS011;5350;42.698;23.148;2023-04-16T11:13:34;3.08;;;1.20;;
10605;SDS011;5350;42.698;23.148;2023-04-16T11:16:03;2.42;;;1.20;;
10605;SDS011;5350;42.698;23.148;2023-04-16T11:18:31;3.53;;;1.20;;
10605;SDS011;5350;42.698;23.148;2023-04-16T11:20:57;2.70;;;1.08;;
10605;SDS011;5350;42.698;23.148;2023-04-16T11:23:24;1.60;;;1.20;;
10605;SDS011;5350;42.698;23.148;2023-04-16T11:25:51;2.50;;;1.27;;
10605;SDS011;5350;42.698;23.148;2023-04-16T11:28:30;3.05;;;1.08;;
10605;SDS011;5350;42.698;23.148;2023-04-16T11:30:58;2.13;;;1.08;;
10605;SDS011;5350;42.698;23.148;2023-04-16T11:33:26;4.18;;;1.33;;
10605;SDS011;5350;42.698;23.148;2023-04-16T11:35:55;3.85;;;1.30;;
10605;SDS011;5350;42.698;23.148;2023-04-16T11:38:31;2.78;;;1.20;;
10605;SDS011;5350;42.698;23.148;2023-04-16T11:40:59;2.53;;;1.48;;
10605;SDS011;5350;42.698;23.148;2023-04-16T11:43:25;2.40;;;1.52;;
10605;SDS011;5350;42.698;23.148;2023-04-16T11:45:56;3.15;;;1.20;;
10605;SDS011;5350;42.698;23.148;2023-04-16T11:48:23;2.90;;;1.30;;
10605;SDS011;5350;42.698;23.148;2023-04-16T11:50:55;2.67;;;1.27;;
10605;SDS011;5350;42.698;23.148;2023-04-16T11:53:22;4.28;;;1.35;;
10605;SDS011;5350;42.698;23.148;2023-04-16T11:55:49;3.20;;;1.20;;
10605;SDS011;5350;42.698;23.148;2023-04-16T11:58:16;2.85;;;1.35;;
10605;SDS011;5350;42.698;23.148;2023-04-16T12:00:44;3.85;;;1.60;;
10605;SDS011;5350;42.698;23.148;2023-04-16T12:03:10;4.57;;;1.65;;
10605;SDS011;5350;42.698;23.148;2023-04-16T12:05:38;3.50;;;1.90;;
10605;SDS011;5350;42.698;23.148;2023-04-16T12:08:07;3.95;;;1.80;;
10605;SDS011;5350;42.698;23.148;2023-04-16T12:10:36;3.30;;;1.80;;
10605;SDS011;5350;42.698;23.148;2023-04-16T12:13:17;4.03;;;1.60;;
10605;SDS011;5350;42.698;23.148;2023-04-16T12:15:45;4.93;;;1.65;;
10605;SDS011;5350;42.698;23.148;2023-04-16T12:18:12;3.17;;;1.50;;
10605;SDS011;5350;42.698;23.148;2023-04-16T12:20:40;5.20;;;1.75;;
10605;SDS011;5350;42.698;23.148;2023-04-16T12:23:09;5.20;;;1.95;;
10605;SDS011;5350;42.698;23.148;2023-04-16T12:25:41;3.67;;;1.73;;
10605;SDS011;5350;42.698;23.148;2023-04-16T12:28:08;4.03;;;2.35;;
10605;SDS011;5350;42.698;23.148;2023-04-16T12:30:47;3.30;;;1.73;;
10605;SDS011;5350;42.698;23.148;2023-04-16T12:33:16;3.35;;;1.33;;
10605;SDS011;5350;42.698;23.148;2023-04-16T12:35:43;4.28;;;1.80;;
10605;SDS011;5350;42.698;23.148;2023-04-16T12:38:12;3.05;;;1.65;;
10605;SDS011;5350;42.698;23.148;2023-04-16T12:40:39;3.40;;;1.50;;
10605;SDS011;5350;42.698;23.148;2023-04-16T12:43:06;4.20;;;1.55;;
10605;SDS011;5350;42.698;23.148;2023-04-16T12:45:33;4.03;;;1.52;;
10605;SDS011;5350;42.698;23.148;2023-04-16T12:48:00;6.30;;;1.80;;
10605;SDS011;5350;42.698;23.148;2023-04-16T12:50:27;3.20;;;1.70;;
10605;SDS011;5350;42.698;23.148;2023-04-16T12:52:54;4.63;;;1.70;;
10605;SDS011;5350;42.698;23.148;2023-04-16T12:55:22;3.90;;;1.80;;
10605;SDS011;5350;42.698;23.148;2023-04-16T12:57:49;5.13;;;1.40;;
10605;SDS011;5350;42.698;23.148;2023-04-16T13:00:17;4.95;;;1.90;;
10605;SDS011;5350;42.698;23.148;2023-04-16T13:02:44;4.55;;;1.77;;
10605;SDS011;5350;42.698;23.148;2023-04-16T13:05:11;5.90;;;1.88;;
10605;SDS011;5350;42.698;23.148;2023-04-16T13:07:40;10.43;;;4.95;;
10605;SDS011;5350;42.698;23.148;2023-04-16T13:10:08;1.75;;;1.08;;
10605;SDS011;5350;42.698;23.148;2023-04-16T13:12:36;1.63;;;1.10;;
10605;SDS011;5350;42.698;23.148;2023-04-16T13:15:03;2.95;;;2.10;;
10605;SDS011;5350;42.698;23.148;2023-04-16T13:17:30;3.80;;;1.63;;
10605;SDS011;5350;42.698;23.148;2023-04-16T13:19:57;2.03;;;1.00;;
10605;SDS011;5350;42.698;23.148;2023-04-16T13:22:24;2.63;;;1.88;;
10605;SDS011;5350;42.698;23.148;2023-04-16T13:24:51;4.55;;;3.00;;
10605;SDS011;5350;42.698;23.148;2023-04-16T13:27:17;2.17;;;1.40;;
10605;SDS011;5350;42.698;23.148;2023-04-16T13:29:45;1.98;;;0.70;;
10605;SDS011;5350;42.698;23.148;2023-04-16T13:32:12;1.98;;;0.93;;
10605;SDS011;5350;42.698;23.148;2023-04-16T13:34:39;1.30;;;0.50;;
10605;SDS011;5350;42.698;23.148;2023-04-16T13:37:06;2.03;;;0.60;;
10605;SDS011;5350;42.698;23.148;2023-04-16T13:39:33;0.90;;;0.47;;
10605;SDS011;5350;42.698;23.148;2023-04-16T13:41:59;2.72;;;2.00;;
10605;SDS011;5350;42.698;23.148;2023-04-16T13:44:26;3.22;;;1.40;;
10605;SDS011;5350;42.698;23.148;2023-04-16T13:46:54;5.13;;;4.50;;
10605;SDS011;5350;42.698;23.148;2023-04-16T13:49:21;2.60;;;2.05;;
10605;SDS011;5350;42.698;23.148;2023-04-16T13:51:48;3.58;;;2.55;;
10605;SDS011;5350;42.698;23.148;2023-04-16T13:54:15;4.18;;;1.98;;
10605;SDS011;5350;42.698;23.148;2023-04-16T13:56:42;3.20;;;1.85;;
10605;SDS011;5350;42.698;23.148;2023-04-16T13:59:09;1.20;;;1.10;;
10605;SDS011;5350;42.698;23.148;2023-04-16T14:01:35;1.23;;;0.90;;
10605;SDS011;5350;42.698;23.148;2023-04-16T14:04:03;1.73;;;0.90;;
10605;SDS011;5350;42.698;23.148;2023-04-16T14:06:32;2.13;;;1.92;;
10605;SDS011;5350;42.698;23.148;2023-04-16T14:08:59;2.65;;;1.98;;
10605;SDS011;5350;42.698;23.148;2023-04-16T14:11:26;5.70;;;1.65;;
10605;SDS011;5350;42.698;23.148;2023-04-16T14:13:53;1.73;;;1.00;;
10605;SDS011;5350;42.698;23.148;2023-04-16T14:16:20;3.15;;;2.33;;
10605;SDS011;5350;42.698;23.148;2023-04-16T14:18:47;3.58;;;1.83;;
10605;SDS011;5350;42.698;23.148;2023-04-16T14:21:15;2.38;;;1.38;;
10605;SDS011;5350;42.698;23.148;2023-04-16T14:23:41;1.60;;;1.40;;
10605;SDS011;5350;42.698;23.148;2023-04-16T14:26:08;3.38;;;1.90;;
10605;SDS011;5350;42.698;23.148;2023-04-16T14:28:35;9.50;;;6.03;;
10605;SDS011;5350;42.698;23.148;2023-04-16T14:31:02;10.98;;;7.85;;
10605;SDS011;5350;42.698;23.148;2023-04-16T14:33:28;16.38;;;10.80;;
10605;SDS011;5350;42.698;23.148;2023-04-16T14:35:56;11.05;;;6.88;;
10605;SDS011;5350;42.698;23.148;2023-04-16T14:38:24;6.82;;;4.03;;
10605;SDS011;5350;42.698;23.148;2023-04-16T14:40:51;1.90;;;1.58;;
10605;SDS011;5350;42.698;23.148;2023-04-16T14:43:17;2.38;;;1.60;;
10605;SDS011;5350;42.698;23.148;2023-04-16T14:45:44;1.65;;;1.10;;
10605;SDS011;5350;42.698;23.148;2023-04-16T14:48:11;3.85;;;2.30;;